sensor_id;sensor_type;location;lat;lon;timestamp;P1;durP1;ratioP1;P2;durP2;ratioP2
59970;SDS011;45825;45.434;9.116;2023-03-24T00:01:46;7.80;;;6.10;;
59970;SDS011;45825;45.434;9.116;2023-03-24T00:04:11;9.77;;;6.50;;
59970;SDS011;45825;45.434;9.116;2023-03-24T00:06:38;8.30;;;6.22;;
59970;SDS011;45825;45.434;9.116;2023-03-24T00:09:03;10.32;;;6.55;;
59970;SDS011;45825;45.434;9.116;2023-03-24T00:11:30;9.80;;;6.85;;
59970;SDS011;45825;45.434;9.116;2023-03-24T00:13:58;9.85;;;6.65;;
59970;SDS011;45825;45.434;9.116;2023-03-24T00:16:24;10.25;;;6.05;;
59970;SDS011;45825;45.434;9.116;2023-03-24T00:18:50;8.98;;;6.75;;
59970;SDS011;45825;45.434;9.116;2023-03-24T00:21:17;9.90;;;6.80;;
59970;SDS011;45825;45.434;9.116;2023-03-24T00:23:45;9.35;;;7.47;;
59970;SDS011;45825;45.434;9.116;2023-03-24T00:26:13;11.23;;;6.97;;
59970;SDS011;45825;45.434;9.116;2023-03-24T00:28:41;9.95;;;6.38;;
59970;SDS011;45825;45.434;9.116;2023-03-24T00:31:08;9.10;;;6.45;;
59970;SDS011;45825;45.434;9.116;2023-03-24T00:33:34;9.10;;;6.43;;
59970;SDS011;45825;45.434;9.116;2023-03-24T00:36:01;8.88;;;5.97;;
59970;SDS011;45825;45.434;9.116;2023-03-24T00:38:29;10.77;;;6.07;;
59970;SDS011;45825;45.434;9.116;2023-03-24T00:40:56;7.65;;;5.72;;
59970;SDS011;45825;45.434;9.116;2023-03-24T00:43:22;12.05;;;6.05;;
59970;SDS011;45825;45.434;9.116;2023-03-24T00:45:48;8.88;;;5.50;;
59970;SDS011;45825;45.434;9.116;2023-03-24T00:48:16;7.70;;;5.47;;
59970;SDS011;45825;45.434;9.116;2023-03-24T00:50:43;8.05;;;5.18;;
59970;SDS011;45825;45.434;9.116;2023-03-24T00:53:10;8.15;;;4.78;;
59970;SDS011;45825;45.434;9.116;2023-03-24T00:55:36;8.85;;;5.18;;
59970;SDS011;45825;45.434;9.116;2023-03-24T00:58:02;7.78;;;4.45;;
59970;SDS011;45825;45.434;9.116;2023-03-24T01:00:27;8.77;;;4.32;;
59970;SDS011;45825;45.434;9.116;2023-03-24T01:02:54;7.45;;;4.57;;
59970;SDS011;45825;45.434;9.116;2023-03-24T01:05:21;9.50;;;5.22;;
59970;SDS011;45825;45.434;9.116;2023-03-24T01:07:57;8.75;;;4.95;;
59970;SDS011;45825;45.434;9.116;2023-03-24T01:10:27;7.65;;;5.10;;
59970;SDS011;45825;45.434;9.116;2023-03-24T01:12:55;6.15;;;4.18;;
59970;SDS011;45825;45.434;9.116;2023-03-24T01:15:22;7.05;;;4.40;;
59970;SDS011;45825;45.434;9.116;2023-03-24T01:17:50;7.13;;;4.40;;
59970;SDS011;45825;45.434;9.116;2023-03-24T01:20:17;7.03;;;4.90;;
59970;SDS011;45825;45.434;9.116;2023-03-24T01:22:43;6.82;;;4.10;;
59970;SDS011;45825;45.434;9.116;2023-03-24T01:25:21;7.75;;;4.90;;
59970;SDS011;45825;45.434;9.116;2023-03-24T01:27:47;8.48;;;4.75;;
59970;SDS011;45825;45.434;9.116;2023-03-24T01:30:15;7.75;;;4.80;;
59970;SDS011;45825;45.434;9.116;2023-03-24T01:32:42;7.38;;;4.55;;
59970;SDS011;45825;45.434;9.116;2023-03-24T01:35:08;7.55;;;4.75;;
59970;SDS011;45825;45.434;9.116;2023-03-24T01:37:35;7.05;;;4.95;;
59970;SDS011;45825;45.434;9.116;2023-03-24T01:40:01;8.00;;;5.18;;
59970;SDS011;45825;45.434;9.116;2023-03-24T01:42:31;7.53;;;5.07;;
59970;SDS011;45825;45.434;9.116;2023-03-24T01:44:58;8.48;;;5.60;;
59970;SDS011;45825;45.434;9.116;2023-03-24T01:47:25;7.70;;;5.20;;
59970;SDS011;45825;45.434;9.116;2023-03-24T01:49:52;7.70;;;4.25;;
59970;SDS011;45825;45.434;9.116;2023-03-24T01:52:23;6.25;;;3.97;;
59970;SDS011;45825;45.434;9.116;2023-03-24T01:55:07;7.90;;;4.50;;
59970;SDS011;45825;45.434;9.116;2023-03-24T01:57:39;6.32;;;4.18;;
59970;SDS011;45825;45.434;9.116;2023-03-24T02:00:17;7.35;;;4.15;;
59970;SDS011;45825;45.434;9.116;2023-03-24T02:02:45;5.70;;;3.85;;
59970;SDS011;45825;45.434;9.116;2023-03-24T02:05:18;6.90;;;3.90;;
59970;SDS011;45825;45.434;9.116;2023-03-24T02:07:52;6.78;;;4.32;;
59970;SDS011;45825;45.434;9.116;2023-03-24T02:10:30;6.13;;;3.72;;
59970;SDS011;45825;45.434;9.116;2023-03-24T02:12:58;6.00;;;3.90;;
59970;SDS011;45825;45.434;9.116;2023-03-24T02:15:24;6.43;;;4.03;;
59970;SDS011;45825;45.434;9.116;2023-03-24T02:40:09;8.40;;;3.85;;
59970;SDS011;45825;45.434;9.116;2023-03-24T02:51:15;5.53;;;3.60;;
59970;SDS011;45825;45.434;9.116;2023-03-24T02:53:53;7.22;;;3.83;;
59970;SDS011;45825;45.434;9.116;2023-03-24T02:58:51;6.82;;;4.07;;
59970;SDS011;45825;45.434;9.116;2023-03-24T03:01:30;5.28;;;3.42;;
59970;SDS011;45825;45.434;9.116;2023-03-24T03:04:13;7.05;;;3.50;;
59970;SDS011;45825;45.434;9.116;2023-03-24T03:06:43;5.82;;;3.10;;
59970;SDS011;45825;45.434;9.116;2023-03-24T03:09:15;5.68;;;3.53;;
59970;SDS011;45825;45.434;9.116;2023-03-24T03:11:47;6.53;;;4.00;;
59970;SDS011;45825;45.434;9.116;2023-03-24T03:14:21;9.27;;;3.85;;
59970;SDS011;45825;45.434;9.116;2023-03-24T03:16:47;6.35;;;3.72;;
59970;SDS011;45825;45.434;9.116;2023-03-24T03:19:23;5.82;;;3.55;;
59970;SDS011;45825;45.434;9.116;2023-03-24T03:21:54;4.78;;;3.17;;
59970;SDS011;45825;45.434;9.116;2023-03-24T03:24:24;5.60;;;3.60;;
59970;SDS011;45825;45.434;9.116;2023-03-24T03:26:56;5.15;;;3.28;;
59970;SDS011;45825;45.434;9.116;2023-03-24T03:29:27;6.40;;;3.70;;
59970;SDS011;45825;45.434;9.116;2023-03-24T03:31:59;5.82;;;3.50;;
59970;SDS011;45825;45.434;9.116;2023-03-24T03:34:41;6.18;;;3.78;;
59970;SDS011;45825;45.434;9.116;2023-03-24T03:40:19;5.65;;;3.58;;
59970;SDS011;45825;45.434;9.116;2023-03-24T03:42:50;8.52;;;4.25;;
59970;SDS011;45825;45.434;9.116;2023-03-24T03:45:16;5.45;;;3.15;;
59970;SDS011;45825;45.434;9.116;2023-03-24T03:47:41;5.53;;;2.90;;
59970;SDS011;45825;45.434;9.116;2023-03-24T03:50:07;4.97;;;2.95;;
59970;SDS011;45825;45.434;9.116;2023-03-24T03:52:34;5.57;;;3.08;;
59970;SDS011;45825;45.434;9.116;2023-03-24T03:55:02;5.80;;;2.90;;
59970;SDS011;45825;45.434;9.116;2023-03-24T03:57:28;4.20;;;2.78;;
59970;SDS011;45825;45.434;9.116;2023-03-24T03:59:54;5.30;;;3.10;;
59970;SDS011;45825;45.434;9.116;2023-03-24T04:27:01;5.03;;;2.80;;
59970;SDS011;45825;45.434;9.116;2023-03-24T04:35:11;4.72;;;3.03;;
59970;SDS011;45825;45.434;9.116;2023-03-24T04:37:50;5.72;;;3.08;;
59970;SDS011;45825;45.434;9.116;2023-03-24T04:40:16;7.10;;;3.40;;
59970;SDS011;45825;45.434;9.116;2023-03-24T04:42:49;6.50;;;3.28;;
59970;SDS011;45825;45.434;9.116;2023-03-24T04:45:17;5.97;;;3.40;;
59970;SDS011;45825;45.434;9.116;2023-03-24T04:47:48;5.43;;;3.33;;
59970;SDS011;45825;45.434;9.116;2023-03-24T04:53:16;4.95;;;2.80;;
59970;SDS011;45825;45.434;9.116;2023-03-24T04:58:31;5.63;;;3.30;;
59970;SDS011;45825;45.434;9.116;2023-03-24T05:00:57;6.45;;;3.35;;
59970;SDS011;45825;45.434;9.116;2023-03-24T05:03:23;6.78;;;3.38;;
59970;SDS011;45825;45.434;9.116;2023-03-24T05:05:50;6.43;;;3.70;;
59970;SDS011;45825;45.434;9.116;2023-03-24T05:08:16;7.18;;;3.83;;
59970;SDS011;45825;45.434;9.116;2023-03-24T05:10:42;6.63;;;3.75;;
59970;SDS011;45825;45.434;9.116;2023-03-24T05:13:08;9.23;;;3.90;;
59970;SDS011;45825;45.434;9.116;2023-03-24T05:15:33;5.55;;;3.30;;
59970;SDS011;45825;45.434;9.116;2023-03-24T05:17:59;7.30;;;4.05;;
59970;SDS011;45825;45.434;9.116;2023-03-24T05:20:25;6.68;;;4.25;;
59970;SDS011;45825;45.434;9.116;2023-03-24T05:22:51;9.20;;;4.70;;
59970;SDS011;45825;45.434;9.116;2023-03-24T05:25:18;6.93;;;4.35;;
59970;SDS011;45825;45.434;9.116;2023-03-24T05:27:44;6.88;;;4.25;;
59970;SDS011;45825;45.434;9.116;2023-03-24T05:30:10;6.97;;;4.00;;
59970;SDS011;45825;45.434;9.116;2023-03-24T05:32:36;7.15;;;3.80;;
59970;SDS011;45825;45.434;9.116;2023-03-24T05:35:01;7.35;;;4.10;;
59970;SDS011;45825;45.434;9.116;2023-03-24T05:37:27;5.88;;;3.60;;
59970;SDS011;45825;45.434;9.116;2023-03-24T05:39:53;8.43;;;3.65;;
59970;SDS011;45825;45.434;9.116;2023-03-24T05:42:18;8.43;;;3.50;;
59970;SDS011;45825;45.434;9.116;2023-03-24T05:44:44;7.82;;;4.18;;
59970;SDS011;45825;45.434;9.116;2023-03-24T05:47:09;6.93;;;3.45;;
59970;SDS011;45825;45.434;9.116;2023-03-24T05:49:37;8.05;;;3.20;;
59970;SDS011;45825;45.434;9.116;2023-03-24T05:52:02;5.68;;;3.22;;
59970;SDS011;45825;45.434;9.116;2023-03-24T05:54:28;10.75;;;3.75;;
59970;SDS011;45825;45.434;9.116;2023-03-24T05:56:53;5.78;;;2.92;;
59970;SDS011;45825;45.434;9.116;2023-03-24T05:59:19;6.35;;;3.20;;
59970;SDS011;45825;45.434;9.116;2023-03-24T06:01:45;6.65;;;3.10;;
59970;SDS011;45825;45.434;9.116;2023-03-24T06:04:12;6.40;;;3.40;;
59970;SDS011;45825;45.434;9.116;2023-03-24T06:06:38;7.60;;;2.97;;
59970;SDS011;45825;45.434;9.116;2023-03-24T06:09:04;5.53;;;3.10;;
59970;SDS011;45825;45.434;9.116;2023-03-24T06:11:30;7.05;;;3.22;;
59970;SDS011;45825;45.434;9.116;2023-03-24T06:13:56;6.97;;;3.00;;
59970;SDS011;45825;45.434;9.116;2023-03-24T06:16:27;8.65;;;3.15;;
59970;SDS011;45825;45.434;9.116;2023-03-24T06:18:53;7.13;;;2.90;;
59970;SDS011;45825;45.434;9.116;2023-03-24T06:21:19;6.53;;;2.90;;
59970;SDS011;45825;45.434;9.116;2023-03-24T06:23:45;7.97;;;3.17;;
59970;SDS011;45825;45.434;9.116;2023-03-24T06:26:11;5.90;;;3.10;;
59970;SDS011;45825;45.434;9.116;2023-03-24T06:28:38;6.82;;;3.17;;
59970;SDS011;45825;45.434;9.116;2023-03-24T06:31:06;5.93;;;3.22;;
59970;SDS011;45825;45.434;9.116;2023-03-24T06:33:38;6.78;;;3.38;;
59970;SDS011;45825;45.434;9.116;2023-03-24T06:36:04;9.45;;;3.40;;
59970;SDS011;45825;45.434;9.116;2023-03-24T06:38:30;7.63;;;3.30;;
59970;SDS011;45825;45.434;9.116;2023-03-24T06:41:02;7.43;;;3.33;;
59970;SDS011;45825;45.434;9.116;2023-03-24T06:43:28;8.18;;;3.47;;
59970;SDS011;45825;45.434;9.116;2023-03-24T06:45:54;7.35;;;3.65;;
59970;SDS011;45825;45.434;9.116;2023-03-24T06:48:20;9.55;;;3.58;;
59970;SDS011;45825;45.434;9.116;2023-03-24T06:50:46;7.20;;;3.50;;
59970;SDS011;45825;45.434;9.116;2023-03-24T06:53:11;7.13;;;3.42;;
59970;SDS011;45825;45.434;9.116;2023-03-24T06:55:36;6.95;;;3.17;;
59970;SDS011;45825;45.434;9.116;2023-03-24T06:58:02;8.32;;;3.28;;
59970;SDS011;45825;45.434;9.116;2023-03-24T07:00:27;9.57;;;3.67;;
59970;SDS011;45825;45.434;9.116;2023-03-24T07:02:53;6.90;;;4.13;;
59970;SDS011;45825;45.434;9.116;2023-03-24T07:05:20;8.13;;;3.40;;
59970;SDS011;45825;45.434;9.116;2023-03-24T07:07:45;10.02;;;3.55;;
59970;SDS011;45825;45.434;9.116;2023-03-24T07:10:11;7.43;;;3.83;;
59970;SDS011;45825;45.434;9.116;2023-03-24T07:12:37;7.28;;;3.47;;
59970;SDS011;45825;45.434;9.116;2023-03-24T07:15:04;8.20;;;3.83;;
59970;SDS011;45825;45.434;9.116;2023-03-24T07:17:31;10.15;;;3.53;;
59970;SDS011;45825;45.434;9.116;2023-03-24T07:19:56;8.10;;;3.80;;
59970;SDS011;45825;45.434;9.116;2023-03-24T07:22:22;5.95;;;3.15;;
59970;SDS011;45825;45.434;9.116;2023-03-24T07:24:47;8.23;;;3.20;;
59970;SDS011;45825;45.434;9.116;2023-03-24T07:27:13;9.35;;;3.30;;
59970;SDS011;45825;45.434;9.116;2023-03-24T07:29:38;7.75;;;3.08;;
59970;SDS011;45825;45.434;9.116;2023-03-24T07:32:03;8.75;;;3.05;;
59970;SDS011;45825;45.434;9.116;2023-03-24T07:34:29;7.90;;;3.17;;
59970;SDS011;45825;45.434;9.116;2023-03-24T07:36:55;7.53;;;3.17;;
59970;SDS011;45825;45.434;9.116;2023-03-24T07:39:21;6.25;;;2.75;;
59970;SDS011;45825;45.434;9.116;2023-03-24T07:41:46;9.55;;;3.60;;
59970;SDS011;45825;45.434;9.116;2023-03-24T07:44:12;7.65;;;2.90;;
59970;SDS011;45825;45.434;9.116;2023-03-24T07:46:37;6.93;;;3.20;;
59970;SDS011;45825;45.434;9.116;2023-03-24T07:49:03;9.57;;;3.03;;
59970;SDS011;45825;45.434;9.116;2023-03-24T07:51:29;7.68;;;3.20;;
59970;SDS011;45825;45.434;9.116;2023-03-24T07:53:54;7.00;;;2.90;;
59970;SDS011;45825;45.434;9.116;2023-03-24T07:56:20;6.88;;;2.80;;
59970;SDS011;45825;45.434;9.116;2023-03-24T07:58:45;7.47;;;2.75;;
59970;SDS011;45825;45.434;9.116;2023-03-24T08:01:11;15.27;;;3.63;;
59970;SDS011;45825;45.434;9.116;2023-03-24T08:03:37;6.82;;;2.90;;
59970;SDS011;45825;45.434;9.116;2023-03-24T08:06:05;5.60;;;2.58;;
59970;SDS011;45825;45.434;9.116;2023-03-24T08:08:32;6.85;;;3.00;;
59970;SDS011;45825;45.434;9.116;2023-03-24T08:10:58;6.25;;;3.17;;
59970;SDS011;45825;45.434;9.116;2023-03-24T08:13:23;6.28;;;3.03;;
59970;SDS011;45825;45.434;9.116;2023-03-24T08:15:49;7.13;;;3.10;;
59970;SDS011;45825;45.434;9.116;2023-03-24T08:18:15;9.10;;;3.08;;
59970;SDS011;45825;45.434;9.116;2023-03-24T08:20:40;9.32;;;3.20;;
59970;SDS011;45825;45.434;9.116;2023-03-24T08:23:06;6.13;;;2.90;;
59970;SDS011;45825;45.434;9.116;2023-03-24T08:28:02;6.38;;;3.30;;
59970;SDS011;45825;45.434;9.116;2023-03-24T08:30:28;8.82;;;3.17;;
59970;SDS011;45825;45.434;9.116;2023-03-24T08:32:55;9.02;;;3.30;;
59970;SDS011;45825;45.434;9.116;2023-03-24T08:35:24;7.28;;;3.13;;
59970;SDS011;45825;45.434;9.116;2023-03-24T08:37:51;8.82;;;3.88;;
59970;SDS011;45825;45.434;9.116;2023-03-24T08:40:18;7.28;;;3.50;;
59970;SDS011;45825;45.434;9.116;2023-03-24T08:42:48;6.30;;;3.38;;
59970;SDS011;45825;45.434;9.116;2023-03-24T08:45:16;7.50;;;3.92;;
59970;SDS011;45825;45.434;9.116;2023-03-24T08:47:45;8.63;;;3.20;;
59970;SDS011;45825;45.434;9.116;2023-03-24T08:50:11;7.72;;;3.33;;
59970;SDS011;45825;45.434;9.116;2023-03-24T08:52:37;9.52;;;3.72;;
59970;SDS011;45825;45.434;9.116;2023-03-24T08:55:03;9.65;;;3.20;;
59970;SDS011;45825;45.434;9.116;2023-03-24T08:57:29;6.50;;;3.40;;
59970;SDS011;45825;45.434;9.116;2023-03-24T08:59:55;8.40;;;3.10;;
59970;SDS011;45825;45.434;9.116;2023-03-24T09:02:21;8.80;;;3.05;;
59970;SDS011;45825;45.434;9.116;2023-03-24T09:04:47;7.00;;;3.03;;
59970;SDS011;45825;45.434;9.116;2023-03-24T09:07:17;7.10;;;3.03;;
59970;SDS011;45825;45.434;9.116;2023-03-24T09:09:43;7.15;;;3.20;;
59970;SDS011;45825;45.434;9.116;2023-03-24T09:12:08;7.85;;;3.20;;
59970;SDS011;45825;45.434;9.116;2023-03-24T09:14:33;6.70;;;2.85;;
59970;SDS011;45825;45.434;9.116;2023-03-24T09:16:59;5.97;;;3.17;;
59970;SDS011;45825;45.434;9.116;2023-03-24T09:19:24;9.68;;;3.30;;
59970;SDS011;45825;45.434;9.116;2023-03-24T09:21:50;9.13;;;3.15;;
59970;SDS011;45825;45.434;9.116;2023-03-24T09:24:15;7.32;;;3.08;;
59970;SDS011;45825;45.434;9.116;2023-03-24T09:26:41;7.45;;;3.17;;
59970;SDS011;45825;45.434;9.116;2023-03-24T09:29:06;8.63;;;3.30;;
59970;SDS011;45825;45.434;9.116;2023-03-24T09:31:32;7.35;;;3.08;;
59970;SDS011;45825;45.434;9.116;2023-03-24T09:33:58;8.05;;;3.58;;
59970;SDS011;45825;45.434;9.116;2023-03-24T09:36:24;9.23;;;3.35;;
59970;SDS011;45825;45.434;9.116;2023-03-24T09:38:51;6.97;;;3.08;;
59970;SDS011;45825;45.434;9.116;2023-03-24T09:41:17;9.13;;;3.03;;
59970;SDS011;45825;45.434;9.116;2023-03-24T09:43:57;6.43;;;3.00;;
59970;SDS011;45825;45.434;9.116;2023-03-24T09:46:30;6.95;;;3.05;;
59970;SDS011;45825;45.434;9.116;2023-03-24T09:48:59;6.32;;;2.85;;
59970;SDS011;45825;45.434;9.116;2023-03-24T09:51:26;6.93;;;2.97;;
59970;SDS011;45825;45.434;9.116;2023-03-24T09:56:19;6.30;;;3.35;;
59970;SDS011;45825;45.434;9.116;2023-03-24T09:58:48;7.63;;;3.38;;
59970;SDS011;45825;45.434;9.116;2023-03-24T10:01:23;8.30;;;3.20;;
59970;SDS011;45825;45.434;9.116;2023-03-24T10:03:48;6.75;;;2.97;;
59970;SDS011;45825;45.434;9.116;2023-03-24T10:06:22;7.38;;;2.80;;
59970;SDS011;45825;45.434;9.116;2023-03-24T10:08:55;7.55;;;3.30;;
59970;SDS011;45825;45.434;9.116;2023-03-24T10:11:44;7.45;;;3.13;;
59970;SDS011;45825;45.434;9.116;2023-03-24T10:14:37;6.35;;;3.08;;
59970;SDS011;45825;45.434;9.116;2023-03-24T10:17:22;7.47;;;2.90;;
59970;SDS011;45825;45.434;9.116;2023-03-24T10:28:11;7.28;;;3.30;;
59970;SDS011;45825;45.434;9.116;2023-03-24T10:30:43;7.40;;;3.38;;
59970;SDS011;45825;45.434;9.116;2023-03-24T10:33:10;11.68;;;3.60;;
59970;SDS011;45825;45.434;9.116;2023-03-24T10:35:38;7.95;;;3.47;;
59970;SDS011;45825;45.434;9.116;2023-03-24T10:38:28;6.05;;;3.10;;
59970;SDS011;45825;45.434;9.116;2023-03-24T10:40:53;9.05;;;3.22;;
59970;SDS011;45825;45.434;9.116;2023-03-24T10:43:19;7.43;;;3.10;;
59970;SDS011;45825;45.434;9.116;2023-03-24T10:45:51;8.63;;;3.00;;
59970;SDS011;45825;45.434;9.116;2023-03-24T10:51:04;6.25;;;2.80;;
59970;SDS011;45825;45.434;9.116;2023-03-24T10:53:30;6.28;;;2.90;;
59970;SDS011;45825;45.434;9.116;2023-03-24T10:55:57;6.00;;;2.88;;
59970;SDS011;45825;45.434;9.116;2023-03-24T10:58:35;6.43;;;3.15;;
59970;SDS011;45825;45.434;9.116;2023-03-24T11:01:02;9.05;;;3.10;;
59970;SDS011;45825;45.434;9.116;2023-03-24T11:03:43;8.02;;;4.18;;
59970;SDS011;45825;45.434;9.116;2023-03-24T11:06:12;8.10;;;3.35;;
59970;SDS011;45825;45.434;9.116;2023-03-24T11:08:42;8.98;;;3.67;;
59970;SDS011;45825;45.434;9.116;2023-03-24T11:11:19;8.90;;;3.58;;
59970;SDS011;45825;45.434;9.116;2023-03-24T11:13:54;6.28;;;3.28;;
59970;SDS011;45825;45.434;9.116;2023-03-24T11:16:26;9.75;;;3.78;;
59970;SDS011;45825;45.434;9.116;2023-03-24T11:18:57;4.82;;;2.65;;
59970;SDS011;45825;45.434;9.116;2023-03-24T11:21:23;5.32;;;3.50;;
59970;SDS011;45825;45.434;9.116;2023-03-24T11:23:50;6.22;;;3.20;;
59970;SDS011;45825;45.434;9.116;2023-03-24T11:26:17;8.63;;;3.22;;
59970;SDS011;45825;45.434;9.116;2023-03-24T11:28:50;7.13;;;3.55;;
59970;SDS011;45825;45.434;9.116;2023-03-24T11:31:20;10.77;;;3.55;;
59970;SDS011;45825;45.434;9.116;2023-03-24T11:37:16;8.73;;;3.60;;
59970;SDS011;45825;45.434;9.116;2023-03-24T11:39:43;7.88;;;3.55;;
59970;SDS011;45825;45.434;9.116;2023-03-24T11:42:31;7.00;;;3.50;;
59970;SDS011;45825;45.434;9.116;2023-03-24T11:44:56;7.22;;;3.78;;
59970;SDS011;45825;45.434;9.116;2023-03-24T11:49:51;10.45;;;3.88;;
59970;SDS011;45825;45.434;9.116;2023-03-24T12:00:36;9.82;;;3.33;;
59970;SDS011;45825;45.434;9.116;2023-03-24T12:05:41;8.15;;;3.30;;
59970;SDS011;45825;45.434;9.116;2023-03-24T12:21:28;9.15;;;3.13;;
59970;SDS011;45825;45.434;9.116;2023-03-24T12:31:55;6.68;;;3.30;;
59970;SDS011;45825;45.434;9.116;2023-03-24T12:37:48;6.63;;;3.25;;
59970;SDS011;45825;45.434;9.116;2023-03-24T12:43:33;8.35;;;3.20;;
59970;SDS011;45825;45.434;9.116;2023-03-24T12:46:14;7.38;;;3.08;;
59970;SDS011;45825;45.434;9.116;2023-03-24T12:54:25;6.00;;;2.80;;
59970;SDS011;45825;45.434;9.116;2023-03-24T12:57:11;7.50;;;2.90;;
59970;SDS011;45825;45.434;9.116;2023-03-24T12:59:43;8.68;;;3.05;;
59970;SDS011;45825;45.434;9.116;2023-03-24T13:02:28;8.43;;;2.78;;
59970;SDS011;45825;45.434;9.116;2023-03-24T13:05:02;6.63;;;2.50;;
59970;SDS011;45825;45.434;9.116;2023-03-24T13:07:35;7.53;;;2.92;;
59970;SDS011;45825;45.434;9.116;2023-03-24T13:10:24;5.68;;;2.40;;
59970;SDS011;45825;45.434;9.116;2023-03-24T13:13:02;8.35;;;2.35;;
59970;SDS011;45825;45.434;9.116;2023-03-24T13:15:42;5.07;;;2.38;;
59970;SDS011;45825;45.434;9.116;2023-03-24T13:18:17;7.50;;;2.80;;
59970;SDS011;45825;45.434;9.116;2023-03-24T13:20:50;7.75;;;2.95;;
59970;SDS011;45825;45.434;9.116;2023-03-24T13:31:53;8.45;;;2.92;;
59970;SDS011;45825;45.434;9.116;2023-03-24T13:34:33;6.13;;;2.55;;
59970;SDS011;45825;45.434;9.116;2023-03-24T13:37:14;7.88;;;3.05;;
59970;SDS011;45825;45.434;9.116;2023-03-24T13:39:46;10.27;;;2.65;;
59970;SDS011;45825;45.434;9.116;2023-03-24T13:42:26;8.13;;;2.60;;
59970;SDS011;45825;45.434;9.116;2023-03-24T13:44:53;9.95;;;2.78;;
59970;SDS011;45825;45.434;9.116;2023-03-24T13:47:18;6.07;;;2.17;;
59970;SDS011;45825;45.434;9.116;2023-03-24T13:49:58;7.47;;;2.55;;
59970;SDS011;45825;45.434;9.116;2023-03-24T13:55:08;5.82;;;2.25;;
59970;SDS011;45825;45.434;9.116;2023-03-24T13:57:59;6.05;;;2.20;;
59970;SDS011;45825;45.434;9.116;2023-03-24T14:00:28;5.47;;;1.80;;
59970;SDS011;45825;45.434;9.116;2023-03-24T14:03:13;5.63;;;2.20;;
59970;SDS011;45825;45.434;9.116;2023-03-24T14:06:01;6.55;;;2.10;;
59970;SDS011;45825;45.434;9.116;2023-03-24T14:16:49;7.30;;;2.50;;
59970;SDS011;45825;45.434;9.116;2023-03-24T14:21:43;6.25;;;2.38;;
59970;SDS011;45825;45.434;9.116;2023-03-24T14:24:20;5.95;;;2.63;;
59970;SDS011;45825;45.434;9.116;2023-03-24T14:26:49;9.98;;;2.60;;
59970;SDS011;45825;45.434;9.116;2023-03-24T14:32:02;6.05;;;2.60;;
59970;SDS011;45825;45.434;9.116;2023-03-24T14:34:28;6.22;;;2.50;;
59970;SDS011;45825;45.434;9.116;2023-03-24T14:36:58;7.13;;;2.35;;
59970;SDS011;45825;45.434;9.116;2023-03-24T14:39:39;8.05;;;2.78;;
59970;SDS011;45825;45.434;9.116;2023-03-24T14:45:01;8.82;;;2.33;;
59970;SDS011;45825;45.434;9.116;2023-03-24T14:47:30;6.32;;;2.30;;
59970;SDS011;45825;45.434;9.116;2023-03-24T14:49:58;8.90;;;2.60;;
59970;SDS011;45825;45.434;9.116;2023-03-24T14:52:31;7.75;;;2.28;;
59970;SDS011;45825;45.434;9.116;2023-03-24T14:55:01;7.00;;;2.15;;
59970;SDS011;45825;45.434;9.116;2023-03-24T14:57:34;10.20;;;2.58;;
59970;SDS011;45825;45.434;9.116;2023-03-24T15:10:57;4.53;;;2.15;;
59970;SDS011;45825;45.434;9.116;2023-03-24T15:13:29;7.10;;;2.72;;
59970;SDS011;45825;45.434;9.116;2023-03-24T15:15:58;7.03;;;2.78;;
59970;SDS011;45825;45.434;9.116;2023-03-24T15:18:24;7.97;;;2.55;;
59970;SDS011;45825;45.434;9.116;2023-03-24T15:20:50;6.72;;;2.60;;
59970;SDS011;45825;45.434;9.116;2023-03-24T15:23:18;7.57;;;2.55;;
59970;SDS011;45825;45.434;9.116;2023-03-24T15:25:43;7.57;;;2.35;;
59970;SDS011;45825;45.434;9.116;2023-03-24T15:28:15;3.65;;;2.15;;
59970;SDS011;45825;45.434;9.116;2023-03-24T15:30:44;9.95;;;2.60;;
59970;SDS011;45825;45.434;9.116;2023-03-24T15:33:10;6.95;;;2.30;;
59970;SDS011;45825;45.434;9.116;2023-03-24T15:35:37;6.50;;;2.20;;
59970;SDS011;45825;45.434;9.116;2023-03-24T15:38:03;7.32;;;2.40;;
59970;SDS011;45825;45.434;9.116;2023-03-24T15:40:29;7.63;;;2.83;;
59970;SDS011;45825;45.434;9.116;2023-03-24T15:43:00;6.53;;;1.95;;
59970;SDS011;45825;45.434;9.116;2023-03-24T15:47:53;8.20;;;1.92;;
59970;SDS011;45825;45.434;9.116;2023-03-24T15:53:06;10.05;;;2.15;;
59970;SDS011;45825;45.434;9.116;2023-03-24T15:56:04;12.45;;;2.53;;
59970;SDS011;45825;45.434;9.116;2023-03-24T15:58:50;5.40;;;1.85;;
59970;SDS011;45825;45.434;9.116;2023-03-24T16:01:37;6.90;;;2.10;;
59970;SDS011;45825;45.434;9.116;2023-03-24T16:04:06;8.10;;;1.90;;
59970;SDS011;45825;45.434;9.116;2023-03-24T16:06:36;5.40;;;1.73;;
59970;SDS011;45825;45.434;9.116;2023-03-24T16:09:07;5.40;;;1.83;;
59970;SDS011;45825;45.434;9.116;2023-03-24T16:11:37;6.80;;;2.00;;
59970;SDS011;45825;45.434;9.116;2023-03-24T16:14:20;4.32;;;1.63;;
59970;SDS011;45825;45.434;9.116;2023-03-24T16:16:52;5.70;;;2.30;;
59970;SDS011;45825;45.434;9.116;2023-03-24T16:19:19;6.63;;;2.20;;
59970;SDS011;45825;45.434;9.116;2023-03-24T16:21:45;6.05;;;2.28;;
59970;SDS011;45825;45.434;9.116;2023-03-24T16:24:10;7.78;;;2.38;;
59970;SDS011;45825;45.434;9.116;2023-03-24T16:26:36;5.70;;;2.10;;
59970;SDS011;45825;45.434;9.116;2023-03-24T16:29:07;6.20;;;2.55;;
59970;SDS011;45825;45.434;9.116;2023-03-24T16:31:42;9.23;;;2.88;;
59970;SDS011;45825;45.434;9.116;2023-03-24T16:34:09;8.32;;;2.85;;
59970;SDS011;45825;45.434;9.116;2023-03-24T16:36:34;9.15;;;2.88;;
59970;SDS011;45825;45.434;9.116;2023-03-24T16:39:00;10.57;;;3.15;;
59970;SDS011;45825;45.434;9.116;2023-03-24T16:41:26;9.20;;;3.35;;
59970;SDS011;45825;45.434;9.116;2023-03-24T16:43:52;7.78;;;2.97;;
59970;SDS011;45825;45.434;9.116;2023-03-24T16:46:28;7.05;;;2.80;;
59970;SDS011;45825;45.434;9.116;2023-03-24T16:48:55;9.50;;;3.45;;
59970;SDS011;45825;45.434;9.116;2023-03-24T16:51:21;7.15;;;2.45;;
59970;SDS011;45825;45.434;9.116;2023-03-24T16:53:46;9.20;;;3.20;;
59970;SDS011;45825;45.434;9.116;2023-03-24T16:56:13;8.07;;;2.92;;
59970;SDS011;45825;45.434;9.116;2023-03-24T16:58:40;9.02;;;2.95;;
59970;SDS011;45825;45.434;9.116;2023-03-24T17:04:06;7.47;;;2.03;;
59970;SDS011;45825;45.434;9.116;2023-03-24T17:06:36;5.30;;;1.77;;
59970;SDS011;45825;45.434;9.116;2023-03-24T17:09:03;5.82;;;1.80;;
59970;SDS011;45825;45.434;9.116;2023-03-24T17:11:42;3.67;;;1.70;;
59970;SDS011;45825;45.434;9.116;2023-03-24T17:14:12;7.97;;;1.90;;
59970;SDS011;45825;45.434;9.116;2023-03-24T17:16:39;7.80;;;1.90;;
59970;SDS011;45825;45.434;9.116;2023-03-24T17:19:08;5.70;;;1.80;;
59970;SDS011;45825;45.434;9.116;2023-03-24T17:21:37;5.32;;;2.05;;
59970;SDS011;45825;45.434;9.116;2023-03-24T17:24:06;5.05;;;2.20;;
59970;SDS011;45825;45.434;9.116;2023-03-24T17:26:35;5.90;;;2.22;;
59970;SDS011;45825;45.434;9.116;2023-03-24T17:29:02;6.45;;;2.30;;
59970;SDS011;45825;45.434;9.116;2023-03-24T17:31:28;6.90;;;2.50;;
59970;SDS011;45825;45.434;9.116;2023-03-24T17:33:53;6.68;;;2.22;;
59970;SDS011;45825;45.434;9.116;2023-03-24T17:36:18;6.28;;;2.03;;
59970;SDS011;45825;45.434;9.116;2023-03-24T17:38:44;8.80;;;2.10;;
59970;SDS011;45825;45.434;9.116;2023-03-24T17:41:11;6.72;;;1.75;;
59970;SDS011;45825;45.434;9.116;2023-03-24T17:43:37;5.30;;;2.08;;
59970;SDS011;45825;45.434;9.116;2023-03-24T17:46:04;6.38;;;2.08;;
59970;SDS011;45825;45.434;9.116;2023-03-24T17:48:29;7.13;;;2.35;;
59970;SDS011;45825;45.434;9.116;2023-03-24T17:50:55;7.05;;;2.30;;
59970;SDS011;45825;45.434;9.116;2023-03-24T17:53:21;8.07;;;2.45;;
59970;SDS011;45825;45.434;9.116;2023-03-24T17:55:53;4.93;;;2.10;;
59970;SDS011;45825;45.434;9.116;2023-03-24T17:58:20;4.85;;;2.10;;
59970;SDS011;45825;45.434;9.116;2023-03-24T18:00:46;3.88;;;2.00;;
59970;SDS011;45825;45.434;9.116;2023-03-24T18:03:13;4.32;;;1.92;;
59970;SDS011;45825;45.434;9.116;2023-03-24T18:05:39;4.90;;;2.20;;